Terminal Aerodrome Forecast
Issued by NWS

Home | Current Version | Previous Version | Text Only | Print | Product List | Glossary On
Versions: 1 2 3 4 5 6 7 8 9 10 11 12 13 14 15 16 17 18 19 20
992
FTUS43 KDLH 231739
TAFBRD
TAF
KBRD 231739Z 2318/2418 03011KT P6SM VCSH SCT029 OVC070
     FM232300 03009KT P6SM VCSH OVC025
     FM240300 02004KT P6SM BKN035
     FM241000 VRB03KT 3SM BR SCT015
     FM241300 04005KT P6SM SCT008
     FM241700 08007KT P6SM SCT025=

USA.gov is the U.S. government's official web portal to all federal, state and local government web resources and services.